sensor_id;sensor_type;location;lat;lon;timestamp;P1;durP1;ratioP1;P2;durP2;ratioP2
36411;SDS011;22445;52.100;5.176;2023-10-09T00:00:36;74.53;;;34.92;;
36411;SDS011;22445;52.100;5.176;2023-10-09T00:03:25;65.43;;;33.53;;
36411;SDS011;22445;52.100;5.176;2023-10-09T00:05:53;61.58;;;32.80;;
36411;SDS011;22445;52.100;5.176;2023-10-09T00:08:19;63.25;;;32.50;;
36411;SDS011;22445;52.100;5.176;2023-10-09T00:10:52;65.03;;;33.20;;
36411;SDS011;22445;52.100;5.176;2023-10-09T00:13:21;57.20;;;31.77;;
36411;SDS011;22445;52.100;5.176;2023-10-09T00:16:05;56.03;;;31.40;;
36411;SDS011;22445;52.100;5.176;2023-10-09T00:18:39;58.92;;;31.25;;
36411;SDS011;22445;52.100;5.176;2023-10-09T00:21:13;46.58;;;27.38;;
36411;SDS011;22445;52.100;5.176;2023-10-09T00:23:40;52.13;;;29.08;;
36411;SDS011;22445;52.100;5.176;2023-10-09T00:26:06;54.35;;;28.55;;
36411;SDS011;22445;52.100;5.176;2023-10-09T00:28:41;56.85;;;29.25;;
36411;SDS011;22445;52.100;5.176;2023-10-09T00:31:09;52.65;;;27.90;;
36411;SDS011;22445;52.100;5.176;2023-10-09T00:33:40;50.42;;;28.92;;
36411;SDS011;22445;52.100;5.176;2023-10-09T00:36:07;52.47;;;28.23;;
36411;SDS011;22445;52.100;5.176;2023-10-09T00:38:39;49.50;;;26.10;;
36411;SDS011;22445;52.100;5.176;2023-10-09T00:41:17;51.20;;;27.00;;
36411;SDS011;22445;52.100;5.176;2023-10-09T00:43:47;48.85;;;27.98;;
36411;SDS011;22445;52.100;5.176;2023-10-09T00:46:15;43.08;;;26.20;;
36411;SDS011;22445;52.100;5.176;2023-10-09T00:49:05;43.20;;;26.02;;
36411;SDS011;22445;52.100;5.176;2023-10-09T00:51:35;42.60;;;24.85;;
36411;SDS011;22445;52.100;5.176;2023-10-09T00:54:02;39.35;;;24.85;;
36411;SDS011;22445;52.100;5.176;2023-10-09T00:56:39;39.22;;;22.00;;
36411;SDS011;22445;52.100;5.176;2023-10-09T00:59:09;38.05;;;22.25;;
36411;SDS011;22445;52.100;5.176;2023-10-09T01:01:45;36.83;;;20.77;;
36411;SDS011;22445;52.100;5.176;2023-10-09T01:04:21;34.97;;;22.92;;
36411;SDS011;22445;52.100;5.176;2023-10-09T01:06:50;33.95;;;23.33;;
36411;SDS011;22445;52.100;5.176;2023-10-09T01:09:33;31.70;;;21.70;;
36411;SDS011;22445;52.100;5.176;2023-10-09T01:12:08;29.65;;;21.15;;
36411;SDS011;22445;52.100;5.176;2023-10-09T01:14:42;31.85;;;22.20;;
36411;SDS011;22445;52.100;5.176;2023-10-09T01:17:09;38.72;;;22.90;;
36411;SDS011;22445;52.100;5.176;2023-10-09T01:19:35;33.58;;;21.23;;
36411;SDS011;22445;52.100;5.176;2023-10-09T01:22:00;27.20;;;19.95;;
36411;SDS011;22445;52.100;5.176;2023-10-09T01:24:37;28.52;;;19.90;;
36411;SDS011;22445;52.100;5.176;2023-10-09T01:27:04;30.33;;;20.55;;
36411;SDS011;22445;52.100;5.176;2023-10-09T01:29:37;29.95;;;21.00;;
36411;SDS011;22445;52.100;5.176;2023-10-09T01:32:06;28.38;;;18.98;;
36411;SDS011;22445;52.100;5.176;2023-10-09T01:34:34;29.13;;;18.90;;
36411;SDS011;22445;52.100;5.176;2023-10-09T01:37:19;29.88;;;19.15;;
36411;SDS011;22445;52.100;5.176;2023-10-09T01:39:57;26.80;;;19.52;;
36411;SDS011;22445;52.100;5.176;2023-10-09T01:42:24;23.02;;;17.75;;
36411;SDS011;22445;52.100;5.176;2023-10-09T01:45:10;27.75;;;17.58;;
36411;SDS011;22445;52.100;5.176;2023-10-09T01:48:09;23.95;;;16.55;;
36411;SDS011;22445;52.100;5.176;2023-10-09T01:50:37;22.38;;;16.50;;
36411;SDS011;22445;52.100;5.176;2023-10-09T01:53:07;25.40;;;16.73;;
36411;SDS011;22445;52.100;5.176;2023-10-09T01:55:33;23.02;;;16.23;;
36411;SDS011;22445;52.100;5.176;2023-10-09T01:58:19;25.50;;;15.95;;
36411;SDS011;22445;52.100;5.176;2023-10-09T02:01:08;27.40;;;16.58;;
36411;SDS011;22445;52.100;5.176;2023-10-09T02:03:35;23.17;;;15.73;;
36411;SDS011;22445;52.100;5.176;2023-10-09T02:06:02;24.88;;;16.15;;
36411;SDS011;22445;52.100;5.176;2023-10-09T02:08:29;24.63;;;16.67;;
36411;SDS011;22445;52.100;5.176;2023-10-09T02:11:00;26.13;;;16.92;;
36411;SDS011;22445;52.100;5.176;2023-10-09T02:13:27;20.45;;;15.30;;
36411;SDS011;22445;52.100;5.176;2023-10-09T02:16:10;22.48;;;16.38;;
36411;SDS011;22445;52.100;5.176;2023-10-09T02:18:39;22.48;;;15.02;;
36411;SDS011;22445;52.100;5.176;2023-10-09T02:21:18;21.75;;;15.50;;
36411;SDS011;22445;52.100;5.176;2023-10-09T02:23:53;24.02;;;17.13;;
36411;SDS011;22445;52.100;5.176;2023-10-09T02:26:22;25.17;;;15.50;;
36411;SDS011;22445;52.100;5.176;2023-10-09T02:28:55;19.05;;;13.50;;
36411;SDS011;22445;52.100;5.176;2023-10-09T02:31:24;24.67;;;14.38;;
36411;SDS011;22445;52.100;5.176;2023-10-09T02:33:52;19.95;;;13.93;;
36411;SDS011;22445;52.100;5.176;2023-10-09T02:36:21;24.15;;;13.90;;
36411;SDS011;22445;52.100;5.176;2023-10-09T02:38:47;20.42;;;14.07;;
36411;SDS011;22445;52.100;5.176;2023-10-09T02:41:16;22.73;;;13.57;;
36411;SDS011;22445;52.100;5.176;2023-10-09T02:44:02;19.30;;;13.07;;
36411;SDS011;22445;52.100;5.176;2023-10-09T02:46:38;20.98;;;13.82;;
36411;SDS011;22445;52.100;5.176;2023-10-09T02:49:05;19.50;;;12.80;;
36411;SDS011;22445;52.100;5.176;2023-10-09T02:51:31;18.45;;;12.90;;
36411;SDS011;22445;52.100;5.176;2023-10-09T02:54:06;16.92;;;13.00;;
36411;SDS011;22445;52.100;5.176;2023-10-09T02:56:51;15.77;;;11.45;;
36411;SDS011;22445;52.100;5.176;2023-10-09T02:59:40;18.40;;;13.27;;
36411;SDS011;22445;52.100;5.176;2023-10-09T03:02:10;17.02;;;12.73;;
36411;SDS011;22445;52.100;5.176;2023-10-09T03:04:36;19.23;;;11.93;;
36411;SDS011;22445;52.100;5.176;2023-10-09T03:07:04;20.92;;;13.15;;
36411;SDS011;22445;52.100;5.176;2023-10-09T03:09:31;22.42;;;13.88;;
36411;SDS011;22445;52.100;5.176;2023-10-09T03:11:58;17.52;;;13.60;;
36411;SDS011;22445;52.100;5.176;2023-10-09T03:14:28;18.92;;;12.10;;
36411;SDS011;22445;52.100;5.176;2023-10-09T03:16:56;17.08;;;11.55;;
36411;SDS011;22445;52.100;5.176;2023-10-09T03:19:22;18.08;;;11.50;;
36411;SDS011;22445;52.100;5.176;2023-10-09T03:21:51;16.42;;;10.85;;
36411;SDS011;22445;52.100;5.176;2023-10-09T03:24:17;17.05;;;11.98;;
36411;SDS011;22445;52.100;5.176;2023-10-09T03:26:43;21.58;;;12.05;;
36411;SDS011;22445;52.100;5.176;2023-10-09T03:29:11;17.00;;;10.95;;
36411;SDS011;22445;52.100;5.176;2023-10-09T03:31:37;17.20;;;11.60;;
36411;SDS011;22445;52.100;5.176;2023-10-09T03:34:03;15.95;;;10.95;;
36411;SDS011;22445;52.100;5.176;2023-10-09T03:36:29;17.75;;;10.23;;
36411;SDS011;22445;52.100;5.176;2023-10-09T03:39:03;16.90;;;11.00;;
36411;SDS011;22445;52.100;5.176;2023-10-09T03:41:44;17.35;;;11.38;;
36411;SDS011;22445;52.100;5.176;2023-10-09T03:44:13;16.67;;;10.85;;
36411;SDS011;22445;52.100;5.176;2023-10-09T03:46:39;20.73;;;10.57;;
36411;SDS011;22445;52.100;5.176;2023-10-09T03:49:09;16.08;;;10.70;;
36411;SDS011;22445;52.100;5.176;2023-10-09T03:51:37;15.70;;;10.70;;
36411;SDS011;22445;52.100;5.176;2023-10-09T03:54:02;17.73;;;11.05;;
36411;SDS011;22445;52.100;5.176;2023-10-09T03:56:38;16.15;;;11.20;;
36411;SDS011;22445;52.100;5.176;2023-10-09T03:59:04;20.45;;;11.20;;
36411;SDS011;22445;52.100;5.176;2023-10-09T04:01:30;14.30;;;9.07;;
36411;SDS011;22445;52.100;5.176;2023-10-09T04:04:03;14.80;;;9.90;;
36411;SDS011;22445;52.100;5.176;2023-10-09T04:06:31;13.65;;;9.52;;
36411;SDS011;22445;52.100;5.176;2023-10-09T04:09:00;16.40;;;9.73;;
36411;SDS011;22445;52.100;5.176;2023-10-09T04:11:39;19.83;;;9.90;;
36411;SDS011;22445;52.100;5.176;2023-10-09T04:14:09;16.88;;;10.25;;
36411;SDS011;22445;52.100;5.176;2023-10-09T04:16:44;19.77;;;11.07;;
36411;SDS011;22445;52.100;5.176;2023-10-09T04:19:16;16.23;;;9.13;;
36411;SDS011;22445;52.100;5.176;2023-10-09T04:21:50;13.23;;;10.10;;
36411;SDS011;22445;52.100;5.176;2023-10-09T04:24:20;16.92;;;9.82;;
36411;SDS011;22445;52.100;5.176;2023-10-09T04:27:06;14.35;;;10.90;;
36411;SDS011;22445;52.100;5.176;2023-10-09T04:29:33;20.10;;;10.95;;
36411;SDS011;22445;52.100;5.176;2023-10-09T04:32:12;14.13;;;10.70;;
36411;SDS011;22445;52.100;5.176;2023-10-09T04:34:41;17.00;;;11.48;;
36411;SDS011;22445;52.100;5.176;2023-10-09T04:37:14;18.05;;;11.07;;
36411;SDS011;22445;52.100;5.176;2023-10-09T04:40:00;15.07;;;10.30;;
36411;SDS011;22445;52.100;5.176;2023-10-09T04:42:36;18.60;;;10.95;;
36411;SDS011;22445;52.100;5.176;2023-10-09T04:45:05;18.35;;;11.48;;
36411;SDS011;22445;52.100;5.176;2023-10-09T04:47:51;16.00;;;10.93;;
36411;SDS011;22445;52.100;5.176;2023-10-09T04:50:23;19.95;;;10.85;;
36411;SDS011;22445;52.100;5.176;2023-10-09T04:53:16;15.73;;;10.73;;
36411;SDS011;22445;52.100;5.176;2023-10-09T04:56:02;14.55;;;10.63;;
36411;SDS011;22445;52.100;5.176;2023-10-09T04:58:30;15.77;;;9.90;;
36411;SDS011;22445;52.100;5.176;2023-10-09T05:00:58;17.65;;;11.20;;
36411;SDS011;22445;52.100;5.176;2023-10-09T05:03:44;17.33;;;11.40;;
36411;SDS011;22445;52.100;5.176;2023-10-09T05:06:09;17.30;;;10.77;;
36411;SDS011;22445;52.100;5.176;2023-10-09T05:09:08;18.13;;;10.48;;
36411;SDS011;22445;52.100;5.176;2023-10-09T05:11:34;17.13;;;11.20;;
36411;SDS011;22445;52.100;5.176;2023-10-09T05:14:21;16.50;;;10.52;;
36411;SDS011;22445;52.100;5.176;2023-10-09T05:16:55;15.10;;;9.88;;
36411;SDS011;22445;52.100;5.176;2023-10-09T05:19:23;13.30;;;8.38;;
36411;SDS011;22445;52.100;5.176;2023-10-09T05:22:15;13.50;;;8.50;;
36411;SDS011;22445;52.100;5.176;2023-10-09T05:24:59;11.65;;;8.73;;
36411;SDS011;22445;52.100;5.176;2023-10-09T05:27:25;15.90;;;8.88;;
36411;SDS011;22445;52.100;5.176;2023-10-09T05:30:10;17.13;;;10.00;;
36411;SDS011;22445;52.100;5.176;2023-10-09T05:32:51;16.73;;;9.15;;
36411;SDS011;22445;52.100;5.176;2023-10-09T05:35:21;15.55;;;9.10;;
36411;SDS011;22445;52.100;5.176;2023-10-09T05:38:04;14.80;;;10.07;;
36411;SDS011;22445;52.100;5.176;2023-10-09T05:40:41;13.90;;;9.48;;
36411;SDS011;22445;52.100;5.176;2023-10-09T05:43:09;15.13;;;8.98;;
36411;SDS011;22445;52.100;5.176;2023-10-09T05:45:55;13.88;;;9.65;;
36411;SDS011;22445;52.100;5.176;2023-10-09T05:48:34;17.30;;;9.43;;
36411;SDS011;22445;52.100;5.176;2023-10-09T05:51:23;18.92;;;9.00;;
36411;SDS011;22445;52.100;5.176;2023-10-09T05:54:07;16.45;;;8.63;;
36411;SDS011;22445;52.100;5.176;2023-10-09T05:56:56;14.05;;;8.93;;
36411;SDS011;22445;52.100;5.176;2023-10-09T05:59:40;15.52;;;8.98;;
36411;SDS011;22445;52.100;5.176;2023-10-09T06:02:24;13.55;;;8.73;;
36411;SDS011;22445;52.100;5.176;2023-10-09T06:05:13;12.10;;;8.70;;
36411;SDS011;22445;52.100;5.176;2023-10-09T06:07:58;14.40;;;9.10;;
36411;SDS011;22445;52.100;5.176;2023-10-09T06:10:31;12.98;;;7.50;;
36411;SDS011;22445;52.100;5.176;2023-10-09T06:13:06;11.30;;;8.23;;
36411;SDS011;22445;52.100;5.176;2023-10-09T06:15:36;14.85;;;8.43;;
36411;SDS011;22445;52.100;5.176;2023-10-09T06:18:20;10.63;;;7.05;;
36411;SDS011;22445;52.100;5.176;2023-10-09T06:20:58;13.85;;;8.95;;
36411;SDS011;22445;52.100;5.176;2023-10-09T06:23:55;13.20;;;7.82;;
36411;SDS011;22445;52.100;5.176;2023-10-09T06:26:34;13.00;;;7.93;;
36411;SDS011;22445;52.100;5.176;2023-10-09T06:29:00;14.90;;;9.38;;
36411;SDS011;22445;52.100;5.176;2023-10-09T06:31:46;12.65;;;8.65;;
36411;SDS011;22445;52.100;5.176;2023-10-09T06:34:30;15.65;;;9.85;;
36411;SDS011;22445;52.100;5.176;2023-10-09T06:37:10;13.70;;;8.88;;
36411;SDS011;22445;52.100;5.176;2023-10-09T06:39:59;13.40;;;8.18;;
36411;SDS011;22445;52.100;5.176;2023-10-09T06:42:45;13.65;;;8.15;;
36411;SDS011;22445;52.100;5.176;2023-10-09T06:45:16;10.20;;;6.97;;
36411;SDS011;22445;52.100;5.176;2023-10-09T06:47:42;10.80;;;8.40;;
36411;SDS011;22445;52.100;5.176;2023-10-09T06:50:30;10.27;;;7.18;;
36411;SDS011;22445;52.100;5.176;2023-10-09T06:53:14;15.45;;;8.20;;
36411;SDS011;22445;52.100;5.176;2023-10-09T06:56:00;11.68;;;6.95;;
36411;SDS011;22445;52.100;5.176;2023-10-09T06:58:31;15.05;;;8.48;;
36411;SDS011;22445;52.100;5.176;2023-10-09T07:01:07;16.80;;;7.95;;
36411;SDS011;22445;52.100;5.176;2023-10-09T07:03:51;14.43;;;7.88;;
36411;SDS011;22445;52.100;5.176;2023-10-09T07:06:25;10.73;;;6.80;;
36411;SDS011;22445;52.100;5.176;2023-10-09T07:09:15;11.27;;;7.78;;
36411;SDS011;22445;52.100;5.176;2023-10-09T07:11:52;14.25;;;7.75;;
36411;SDS011;22445;52.100;5.176;2023-10-09T07:14:23;12.82;;;6.72;;
36411;SDS011;22445;52.100;5.176;2023-10-09T07:17:21;11.30;;;7.97;;
36411;SDS011;22445;52.100;5.176;2023-10-09T07:20:05;12.98;;;8.30;;
36411;SDS011;22445;52.100;5.176;2023-10-09T07:22:50;19.88;;;9.45;;
36411;SDS011;22445;52.100;5.176;2023-10-09T07:25:20;12.10;;;7.78;;
36411;SDS011;22445;52.100;5.176;2023-10-09T07:28:05;12.02;;;8.25;;
36411;SDS011;22445;52.100;5.176;2023-10-09T07:30:46;14.10;;;8.63;;
36411;SDS011;22445;52.100;5.176;2023-10-09T07:33:12;18.65;;;8.93;;
36411;SDS011;22445;52.100;5.176;2023-10-09T07:36:00;10.68;;;8.32;;
36411;SDS011;22445;52.100;5.176;2023-10-09T07:38:31;13.23;;;7.70;;
36411;SDS011;22445;52.100;5.176;2023-10-09T07:41:03;12.85;;;8.27;;
36411;SDS011;22445;52.100;5.176;2023-10-09T07:43:52;14.18;;;7.80;;
36411;SDS011;22445;52.100;5.176;2023-10-09T07:46:21;11.93;;;7.28;;
36411;SDS011;22445;52.100;5.176;2023-10-09T07:49:17;10.90;;;6.65;;
36411;SDS011;22445;52.100;5.176;2023-10-09T07:51:49;9.25;;;7.00;;
36411;SDS011;22445;52.100;5.176;2023-10-09T07:54:18;10.98;;;6.15;;
36411;SDS011;22445;52.100;5.176;2023-10-09T07:56:58;11.10;;;6.53;;
36411;SDS011;22445;52.100;5.176;2023-10-09T07:59:43;10.93;;;7.35;;
36411;SDS011;22445;52.100;5.176;2023-10-09T08:02:26;11.55;;;6.00;;
36411;SDS011;22445;52.100;5.176;2023-10-09T08:04:59;13.25;;;7.10;;
36411;SDS011;22445;52.100;5.176;2023-10-09T08:07:30;9.60;;;6.15;;
36411;SDS011;22445;52.100;5.176;2023-10-09T08:10:05;11.98;;;7.15;;
36411;SDS011;22445;52.100;5.176;2023-10-09T08:13:03;9.15;;;6.35;;
36411;SDS011;22445;52.100;5.176;2023-10-09T08:15:55;8.98;;;6.00;;
36411;SDS011;22445;52.100;5.176;2023-10-09T08:18:21;9.32;;;5.88;;
36411;SDS011;22445;52.100;5.176;2023-10-09T08:21:10;10.23;;;5.80;;
36411;SDS011;22445;52.100;5.176;2023-10-09T08:23:55;12.98;;;5.63;;
36411;SDS011;22445;52.100;5.176;2023-10-09T08:26:21;9.13;;;5.93;;
36411;SDS011;22445;52.100;5.176;2023-10-09T08:29:12;9.85;;;5.60;;
36411;SDS011;22445;52.100;5.176;2023-10-09T08:31:41;11.50;;;5.97;;
36411;SDS011;22445;52.100;5.176;2023-10-09T08:34:13;11.70;;;6.13;;
36411;SDS011;22445;52.100;5.176;2023-10-09T08:36:51;9.30;;;6.45;;
36411;SDS011;22445;52.100;5.176;2023-10-09T08:39:21;9.73;;;5.85;;
36411;SDS011;22445;52.100;5.176;2023-10-09T08:41:55;10.27;;;6.20;;
36411;SDS011;22445;52.100;5.176;2023-10-09T08:44:24;11.85;;;6.05;;
36411;SDS011;22445;52.100;5.176;2023-10-09T08:46:54;10.77;;;6.05;;
36411;SDS011;22445;52.100;5.176;2023-10-09T08:49:20;10.98;;;6.10;;
36411;SDS011;22445;52.100;5.176;2023-10-09T08:51:46;8.00;;;5.68;;
36411;SDS011;22445;52.100;5.176;2023-10-09T08:54:13;11.13;;;5.63;;
36411;SDS011;22445;52.100;5.176;2023-10-09T08:56:40;13.55;;;6.05;;
36411;SDS011;22445;52.100;5.176;2023-10-09T08:59:14;12.70;;;5.22;;
36411;SDS011;22445;52.100;5.176;2023-10-09T09:01:47;8.45;;;5.40;;
36411;SDS011;22445;52.100;5.176;2023-10-09T09:09:58;16.48;;;6.28;;
36411;SDS011;22445;52.100;5.176;2023-10-09T09:12:30;9.57;;;5.60;;
36411;SDS011;22445;52.100;5.176;2023-10-09T09:15:03;9.07;;;5.10;;
36411;SDS011;22445;52.100;5.176;2023-10-09T09:17:33;10.35;;;4.93;;
36411;SDS011;22445;52.100;5.176;2023-10-09T09:20:01;9.55;;;5.80;;
36411;SDS011;22445;52.100;5.176;2023-10-09T09:22:54;8.95;;;4.47;;
36411;SDS011;22445;52.100;5.176;2023-10-09T09:25:38;11.60;;;5.13;;
36411;SDS011;22445;52.100;5.176;2023-10-09T09:28:09;7.97;;;4.88;;
36411;SDS011;22445;52.100;5.176;2023-10-09T09:30:38;9.48;;;4.93;;
36411;SDS011;22445;52.100;5.176;2023-10-09T09:33:16;14.57;;;6.22;;
36411;SDS011;22445;52.100;5.176;2023-10-09T09:38:31;13.80;;;5.88;;
36411;SDS011;22445;52.100;5.176;2023-10-09T09:41:18;8.48;;;4.88;;
36411;SDS011;22445;52.100;5.176;2023-10-09T09:43:59;7.05;;;5.03;;
36411;SDS011;22445;52.100;5.176;2023-10-09T09:46:32;7.53;;;4.80;;
36411;SDS011;22445;52.100;5.176;2023-10-09T09:49:00;8.80;;;4.75;;
36411;SDS011;22445;52.100;5.176;2023-10-09T09:51:29;10.73;;;4.72;;
36411;SDS011;22445;52.100;5.176;2023-10-09T09:53:55;11.43;;;4.45;;
36411;SDS011;22445;52.100;5.176;2023-10-09T09:56:22;7.32;;;4.55;;
36411;SDS011;22445;52.100;5.176;2023-10-09T09:58:50;8.55;;;4.15;;
36411;SDS011;22445;52.100;5.176;2023-10-09T10:01:34;9.70;;;4.55;;
36411;SDS011;22445;52.100;5.176;2023-10-09T10:04:07;8.20;;;4.60;;
36411;SDS011;22445;52.100;5.176;2023-10-09T10:06:37;8.55;;;4.75;;
36411;SDS011;22445;52.100;5.176;2023-10-09T10:09:06;8.68;;;4.32;;
36411;SDS011;22445;52.100;5.176;2023-10-09T10:11:44;10.18;;;4.85;;
36411;SDS011;22445;52.100;5.176;2023-10-09T10:14:11;7.38;;;4.03;;
36411;SDS011;22445;52.100;5.176;2023-10-09T10:20:01;7.18;;;4.38;;
36411;SDS011;22445;52.100;5.176;2023-10-09T10:23:17;8.38;;;4.35;;
36411;SDS011;22445;52.100;5.176;2023-10-09T10:25:44;7.32;;;4.93;;
36411;SDS011;22445;52.100;5.176;2023-10-09T10:28:25;9.23;;;4.63;;
36411;SDS011;22445;52.100;5.176;2023-10-09T10:31:11;9.07;;;4.18;;
36411;SDS011;22445;52.100;5.176;2023-10-09T10:36:40;9.35;;;4.38;;
36411;SDS011;22445;52.100;5.176;2023-10-09T10:39:09;13.95;;;4.85;;
36411;SDS011;22445;52.100;5.176;2023-10-09T10:41:58;6.40;;;3.70;;
36411;SDS011;22445;52.100;5.176;2023-10-09T10:44:30;8.68;;;4.50;;
36411;SDS011;22445;52.100;5.176;2023-10-09T10:47:03;7.47;;;3.65;;
36411;SDS011;22445;52.100;5.176;2023-10-09T10:49:47;8.25;;;4.40;;
36411;SDS011;22445;52.100;5.176;2023-10-09T10:52:23;8.82;;;4.40;;
36411;SDS011;22445;52.100;5.176;2023-10-09T10:55:12;9.32;;;4.20;;
36411;SDS011;22445;52.100;5.176;2023-10-09T10:58:22;5.10;;;3.28;;
36411;SDS011;22445;52.100;5.176;2023-10-09T11:01:00;8.93;;;4.88;;
36411;SDS011;22445;52.100;5.176;2023-10-09T11:03:37;7.70;;;4.13;;
36411;SDS011;22445;52.100;5.176;2023-10-09T11:06:25;8.18;;;4.18;;
36411;SDS011;22445;52.100;5.176;2023-10-09T11:09:04;7.18;;;4.70;;
36411;SDS011;22445;52.100;5.176;2023-10-09T11:11:49;7.45;;;3.88;;
36411;SDS011;22445;52.100;5.176;2023-10-09T11:14:20;7.40;;;3.88;;
36411;SDS011;22445;52.100;5.176;2023-10-09T11:16:49;8.43;;;4.35;;
36411;SDS011;22445;52.100;5.176;2023-10-09T11:19:21;7.78;;;4.55;;
36411;SDS011;22445;52.100;5.176;2023-10-09T11:22:13;8.80;;;4.22;;
36411;SDS011;22445;52.100;5.176;2023-10-09T11:24:59;7.65;;;3.60;;
36411;SDS011;22445;52.100;5.176;2023-10-09T11:27:43;10.23;;;4.15;;
36411;SDS011;22445;52.100;5.176;2023-10-09T11:30:15;9.75;;;4.70;;
36411;SDS011;22445;52.100;5.176;2023-10-09T11:33:06;9.32;;;4.50;;
36411;SDS011;22445;52.100;5.176;2023-10-09T11:35:39;7.57;;;3.80;;
36411;SDS011;22445;52.100;5.176;2023-10-09T11:38:09;6.22;;;3.97;;
36411;SDS011;22445;52.100;5.176;2023-10-09T11:40:47;7.45;;;3.92;;
36411;SDS011;22445;52.100;5.176;2023-10-09T11:43:44;6.03;;;3.92;;
36411;SDS011;22445;52.100;5.176;2023-10-09T11:46:16;8.02;;;3.88;;
36411;SDS011;22445;52.100;5.176;2023-10-09T11:49:11;8.70;;;3.63;;
36411;SDS011;22445;52.100;5.176;2023-10-09T11:52:08;7.38;;;3.92;;
36411;SDS011;22445;52.100;5.176;2023-10-09T11:54:54;7.60;;;3.92;;
36411;SDS011;22445;52.100;5.176;2023-10-09T11:57:21;6.57;;;3.90;;
36411;SDS011;22445;52.100;5.176;2023-10-09T11:59:55;9.32;;;4.32;;
36411;SDS011;22445;52.100;5.176;2023-10-09T12:02:22;8.45;;;4.20;;
36411;SDS011;22445;52.100;5.176;2023-10-09T12:04:47;8.93;;;4.18;;
36411;SDS011;22445;52.100;5.176;2023-10-09T12:07:14;10.40;;;3.92;;
36411;SDS011;22445;52.100;5.176;2023-10-09T12:09:40;9.25;;;4.80;;
36411;SDS011;22445;52.100;5.176;2023-10-09T12:12:06;9.43;;;4.70;;
36411;SDS011;22445;52.100;5.176;2023-10-09T12:14:34;8.98;;;3.78;;
36411;SDS011;22445;52.100;5.176;2023-10-09T12:17:00;7.03;;;4.03;;
36411;SDS011;22445;52.100;5.176;2023-10-09T12:19:33;8.20;;;3.72;;
36411;SDS011;22445;52.100;5.176;2023-10-09T12:21:59;10.85;;;4.07;;
36411;SDS011;22445;52.100;5.176;2023-10-09T12:24:26;9.80;;;4.53;;
36411;SDS011;22445;52.100;5.176;2023-10-09T12:26:55;9.85;;;4.82;;
36411;SDS011;22445;52.100;5.176;2023-10-09T12:29:21;10.63;;;4.55;;
36411;SDS011;22445;52.100;5.176;2023-10-09T12:31:47;10.40;;;4.70;;
36411;SDS011;22445;52.100;5.176;2023-10-09T12:34:12;12.98;;;4.75;;
36411;SDS011;22445;52.100;5.176;2023-10-09T12:36:41;9.82;;;3.75;;
36411;SDS011;22445;52.100;5.176;2023-10-09T12:39:10;7.38;;;4.32;;
36411;SDS011;22445;52.100;5.176;2023-10-09T12:41:45;6.78;;;4.72;;
36411;SDS011;22445;52.100;5.176;2023-10-09T12:44:11;8.52;;;4.55;;
36411;SDS011;22445;52.100;5.176;2023-10-09T12:46:43;10.85;;;4.68;;
36411;SDS011;22445;52.100;5.176;2023-10-09T12:49:17;8.45;;;4.07;;
36411;SDS011;22445;52.100;5.176;2023-10-09T12:51:52;10.52;;;4.82;;
36411;SDS011;22445;52.100;5.176;2023-10-09T12:54:18;11.82;;;4.13;;
36411;SDS011;22445;52.100;5.176;2023-10-09T12:56:52;7.50;;;4.20;;
36411;SDS011;22445;52.100;5.176;2023-10-09T12:59:18;7.55;;;3.67;;
36411;SDS011;22445;52.100;5.176;2023-10-09T13:01:45;10.82;;;4.95;;
36411;SDS011;22445;52.100;5.176;2023-10-09T13:04:15;5.53;;;3.88;;
36411;SDS011;22445;52.100;5.176;2023-10-09T13:06:41;9.77;;;4.82;;
36411;SDS011;22445;52.100;5.176;2023-10-09T13:09:14;12.38;;;4.68;;
36411;SDS011;22445;52.100;5.176;2023-10-09T13:11:40;9.63;;;4.13;;
36411;SDS011;22445;52.100;5.176;2023-10-09T13:14:07;8.52;;;4.15;;
36411;SDS011;22445;52.100;5.176;2023-10-09T13:16:44;7.53;;;3.88;;
36411;SDS011;22445;52.100;5.176;2023-10-09T13:19:10;9.23;;;4.28;;
36411;SDS011;22445;52.100;5.176;2023-10-09T13:21:36;9.00;;;5.00;;
36411;SDS011;22445;52.100;5.176;2023-10-09T13:24:05;12.30;;;4.22;;
36411;SDS011;22445;52.100;5.176;2023-10-09T13:26:38;10.07;;;4.85;;
36411;SDS011;22445;52.100;5.176;2023-10-09T13:29:11;8.98;;;4.18;;
36411;SDS011;22445;52.100;5.176;2023-10-09T13:31:38;8.50;;;3.90;;
36411;SDS011;22445;52.100;5.176;2023-10-09T13:34:05;10.30;;;4.28;;
36411;SDS011;22445;52.100;5.176;2023-10-09T13:36:40;11.98;;;3.88;;
36411;SDS011;22445;52.100;5.176;2023-10-09T13:39:13;9.27;;;4.07;;
36411;SDS011;22445;52.100;5.176;2023-10-09T13:41:55;7.93;;;3.72;;
36411;SDS011;22445;52.100;5.176;2023-10-09T13:44:33;8.50;;;4.05;;
36411;SDS011;22445;52.100;5.176;2023-10-09T13:47:02;8.63;;;4.20;;
36411;SDS011;22445;52.100;5.176;2023-10-09T13:49:30;9.15;;;4.38;;
36411;SDS011;22445;52.100;5.176;2023-10-09T13:52:00;10.75;;;4.28;;
36411;SDS011;22445;52.100;5.176;2023-10-09T13:54:28;9.10;;;4.10;;
36411;SDS011;22445;52.100;5.176;2023-10-09T13:57:05;7.78;;;4.35;;
36411;SDS011;22445;52.100;5.176;2023-10-09T13:59:34;8.55;;;4.10;;
36411;SDS011;22445;52.100;5.176;2023-10-09T14:02:00;12.13;;;4.63;;
36411;SDS011;22445;52.100;5.176;2023-10-09T14:04:27;11.02;;;4.22;;
36411;SDS011;22445;52.100;5.176;2023-10-09T14:06:56;7.85;;;4.18;;
36411;SDS011;22445;52.100;5.176;2023-10-09T14:09:22;8.35;;;4.10;;
36411;SDS011;22445;52.100;5.176;2023-10-09T14:12:03;10.40;;;4.18;;
36411;SDS011;22445;52.100;5.176;2023-10-09T14:17:21;8.45;;;4.18;;
36411;SDS011;22445;52.100;5.176;2023-10-09T14:19:51;8.05;;;3.80;;
36411;SDS011;22445;52.100;5.176;2023-10-09T14:22:18;8.48;;;4.55;;
36411;SDS011;22445;52.100;5.176;2023-10-09T14:24:51;8.05;;;4.65;;
36411;SDS011;22445;52.100;5.176;2023-10-09T14:27:21;12.75;;;4.60;;
36411;SDS011;22445;52.100;5.176;2023-10-09T14:29:53;9.48;;;4.47;;
36411;SDS011;22445;52.100;5.176;2023-10-09T14:32:24;8.88;;;4.13;;
36411;SDS011;22445;52.100;5.176;2023-10-09T14:35:08;10.43;;;4.10;;
36411;SDS011;22445;52.100;5.176;2023-10-09T14:37:38;11.90;;;4.38;;
36411;SDS011;22445;52.100;5.176;2023-10-09T14:40:05;9.07;;;4.72;;
36411;SDS011;22445;52.100;5.176;2023-10-09T14:42:38;7.80;;;4.35;;
36411;SDS011;22445;52.100;5.176;2023-10-09T14:45:09;7.75;;;4.60;;
36411;SDS011;22445;52.100;5.176;2023-10-09T14:47:44;10.65;;;5.05;;
36411;SDS011;22445;52.100;5.176;2023-10-09T14:50:12;12.25;;;4.43;;
36411;SDS011;22445;52.100;5.176;2023-10-09T14:52:39;8.73;;;3.85;;
36411;SDS011;22445;52.100;5.176;2023-10-09T14:55:05;9.10;;;3.83;;
36411;SDS011;22445;52.100;5.176;2023-10-09T14:57:31;6.82;;;4.50;;
36411;SDS011;22445;52.100;5.176;2023-10-09T14:59:59;10.82;;;4.50;;
36411;SDS011;22445;52.100;5.176;2023-10-09T15:02:25;8.88;;;4.80;;
36411;SDS011;22445;52.100;5.176;2023-10-09T15:04:50;10.70;;;4.55;;
36411;SDS011;22445;52.100;5.176;2023-10-09T15:07:18;11.80;;;4.88;;
36411;SDS011;22445;52.100;5.176;2023-10-09T15:09:46;9.70;;;4.32;;
36411;SDS011;22445;52.100;5.176;2023-10-09T15:12:11;8.32;;;4.65;;
36411;SDS011;22445;52.100;5.176;2023-10-09T15:14:37;10.32;;;5.55;;
36411;SDS011;22445;52.100;5.176;2023-10-09T15:17:04;8.68;;;4.25;;
36411;SDS011;22445;52.100;5.176;2023-10-09T15:19:32;8.75;;;4.97;;
36411;SDS011;22445;52.100;5.176;2023-10-09T15:21:57;7.93;;;4.75;;
36411;SDS011;22445;52.100;5.176;2023-10-09T15:24:24;9.98;;;4.55;;
36411;SDS011;22445;52.100;5.176;2023-10-09T15:26:50;9.85;;;4.22;;
36411;SDS011;22445;52.100;5.176;2023-10-09T15:29:22;13.40;;;5.28;;
36411;SDS011;22445;52.100;5.176;2023-10-09T15:31:56;10.52;;;4.82;;